17 mei 2022

Tijd Code Weer Temp. Zicht Wolken Wind METAR/SPECI
15:50
V
24 °C 10 km+ - 120°   120° 8 kt METAR EDLV 171350Z 12008KT 080V160 CAVOK 24/15 Q1020
15:20
V
24 °C 10 km+ - 130°   130° 8 kt METAR EDLV 171320Z 13008KT 090V170 CAVOK 24/15 Q1020
14:50
V
23 °C 10 km+ - 140°   140° 8 kt METAR EDLV 171250Z 14008KT 100V180 CAVOK 23/14 Q1020
14:20
V
22 °C 10 km+ - 130°   130° 7 kt METAR EDLV 171220Z 13007KT 090V150 CAVOK 22/13 Q1020
13:50
V
21 °C 10 km+ - 120°   120° 6 kt METAR EDLV 171150Z 12006KT 080V150 CAVOK 21/13 Q1020
13:20
V
20 °C 10 km+ - 130°   130° 8 kt METAR EDLV 171120Z 13008KT 080V150 CAVOK 20/13 Q1021
12:50
V
19 °C 10 km+ - 130°   130° 7 kt METAR EDLV 171050Z 13007KT CAVOK 19/15 Q1021
12:20
V
19 °C 10 km+ - 100°   100° 3 kt METAR EDLV 171020Z 10003KT 050V130 9999 FEW045 19/14 Q1021
11:50
V
19 °C 10 km+ - Var   Var 2 kt METAR EDLV 170950Z VRB02KT CAVOK 19/14 Q1022
11:20
V
18 °C 10 km+ - 130°   130° 3 kt METAR EDLV 170920Z 13003KT 090V150 CAVOK 18/14 Q1021
10:50
V
18 °C 10 km+ - 140°   140° 2 kt METAR EDLV 170850Z 14002KT CAVOK 18/14 Q1021
10:20
V
18 °C 10 km+ - Var   Var 2 kt METAR EDLV 170820Z VRB02KT CAVOK 18/14 Q1021
09:50
V
17 °C 10 km+ - Var   Var 2 kt METAR EDLV 170750Z VRB02KT CAVOK 17/14 Q1021
09:20
V
17 °C 10 km+ - Var   Var 1 kt METAR EDLV 170720Z VRB01KT CAVOK 17/14 Q1021
08:50
V
16 °C 10 km+ - Var   Var 2 kt METAR EDLV 170650Z VRB02KT CAVOK 16/14 Q1021
08:20
V
15 °C 10 km+ - 170°   170° 3 kt METAR EDLV 170620Z 17003KT 130V190 CAVOK 15/13 Q1021
07:50
V
14 °C 10 km+ - 180°   180° 2 kt METAR EDLV 170550Z 18002KT CAVOK 14/13 Q1021
07:20
V
14 °C 10 km+ - 150°   150° 3 kt METAR EDLV 170520Z 15003KT 120V190 CAVOK 14/13 Q1020
06:50
V
13 °C 10 km+ - 150°   150° 3 kt METAR EDLV 170450Z 15003KT 120V180 CAVOK 13/12 Q1020
06:20
V
13 °C 10 km+ - 150°   150° 4 kt METAR EDLV 170420Z 15004KT CAVOK 13/12 Q1020
05:50
V
13 °C 10 km+ - Var   Var 2 kt METAR EDLV 170350Z VRB02KT CAVOK 13/12 Q1020
05:20
V
13 °C 10 km+ - 160°   160° 3 kt METAR EDLV 170320Z 16003KT CAVOK 13/12 Q1020
04:50
V
13 °C 10 km+ 10.000 ft Var   Var 1 kt METAR EDLV 170250Z AUTO VRB01KT 9999 // FEW084/// OVC100/// 13/12 Q1020
04:20
V
12 °C 10 km+ 11.000 ft 140°   140° 3 kt METAR EDLV 170220Z AUTO 14003KT 9999 // FEW078/// BKN110/// 12/12 Q1020
03:50
V
12 °C 10 km+ - 170°   170° 2 kt METAR EDLV 170150Z AUTO 17002KT 9999 // FEW088/// SCT100/// 12/11 Q1020
03:20
V
11 °C 10 km+ - 160°   160° 1 kt METAR EDLV 170120Z AUTO 16001KT 9999 // NCD 11/10 Q1020
02:50
V
12 °C 10 km+ - 150°   150° 1 kt METAR EDLV 170050Z AUTO 15001KT 9999 // NCD 12/12 Q1020
02:20
V
13 °C 9 km - 220°   220° 1 kt METAR EDLV 170020Z AUTO 22001KT 9000 // NCD 13/12 Q1020
01:50
V
13 °C 10 km+ - 180°   180° 1 kt METAR EDLV 162350Z AUTO 18001KT 9999 // NCD 13/12 Q1020
01:20
V
13 °C 10 km+ - 190°   190° 2 kt METAR EDLV 162320Z AUTO 19002KT 9999 // NCD 13/12 Q1020
00:50
V
13 °C 9 km - 140°   140° 2 kt METAR EDLV 162250Z AUTO 14002KT 9000 // NCD 13/12 Q1020
00:20
V
14 °C 10 km+ - 130°   130° 2 kt METAR EDLV 162220Z AUTO 13002KT 9999 // NCD 14/13 Q1020

16 mei 2022

Tijd Code Weer Temp. Zicht Wolken Wind METAR/SPECI
23:50
V
14 °C 9 km - Var   000° 0 kt METAR EDLV 162150Z 00000KT 9000 NSC 14/13 Q1020
23:20
V
14 °C 10 km+ - Var   000° 0 kt METAR EDLV 162120Z 00000KT CAVOK 14/14 Q1020
22:50
V
14 °C 10 km+ - Var   000° 0 kt METAR EDLV 162050Z 00000KT CAVOK 14/13 Q1019
22:20
V
15 °C 10 km+ - Var   000° 0 kt METAR EDLV 162020Z 00000KT CAVOK 15/13 Q1019
21:50
V
16 °C 10 km+ - Var   000° 0 kt METAR EDLV 161950Z 00000KT CAVOK 16/14 Q1019
21:20
V
19 °C 10 km+ - 330°   330° 3 kt METAR EDLV 161920Z 33003KT CAVOK 19/14 Q1018
20:50
V
19 °C 10 km+ - 320°   320° 3 kt METAR EDLV 161850Z 32003KT CAVOK 19/14 Q1018
20:20
V
20 °C 10 km+ - 320°   320° 5 kt METAR EDLV 161820Z 32005KT 290V360 CAVOK 20/14 Q1018
19:50
V
21 °C 10 km+ - 290°   290° 7 kt METAR EDLV 161750Z 29007KT 260V320 9999 FEW030 21/15 Q1018
19:20
V
21 °C 10 km+ - 300°   300° 6 kt METAR EDLV 161720Z 30006KT 270V340 9999 FEW025 21/15 Q1017
18:50
V
21 °C 10 km+ - 280°   280° 5 kt METAR EDLV 161650Z 28005KT 9999 FEW032 21/16 Q1017
18:20
V
20 °C 10 km+ 3.200 ft 280°   280° 6 kt METAR EDLV 161620Z 28006KT 9999 BKN032 20/16 Q1017
17:50
V
20 °C 10 km+ - 280°   280° 4 kt METAR EDLV 161550Z 28004KT 9999 FEW028 20/16 Q1017
17:20
V
20 °C 10 km+ 3.700 ft 290°   290° 5 kt METAR EDLV 161520Z 29005KT 260V330 9999 FEW018 BKN037 20/16 Q1017
16:50
M
20 °C 10 km+ 2.600 ft 290°   290° 8 kt METAR EDLV 161450Z 29008KT 260V330 9999 VCSH FEW018 BKN026 20/17 Q1017
16:20
M
20 °C 10 km+ 2.800 ft 270°   270° 13 kt METAR EDLV 161420Z 27013KT 9999 VCTS SCT017 BKN028 20/16 Q1016
15:50
V
21 °C 10 km+ - 280°   280° 6 kt METAR EDLV 161350Z 28006KT 260V320 9999 -DZ FEW022 SCT028 21/18 Q1016
15:20
V
20 °C 10 km+ 4.200 ft 320°   320° 5 kt METAR EDLV 161320Z 32005KT 290V350 9999 VCSH FEW029CB SCT036 OVC042 20/18 Q1016
14:50
V
20 °C 9 km 4.400 ft 270°   270° 9 21 kt METAR EDLV 161250Z 27009G21KT 9000 VCTS BKN044CB 20/17 Q1016
14:20
V
22 °C 10 km+ - 280°   280° 4 kt METAR EDLV 161220Z 28004KT 260V350 9999 VCSH FEW030CB 22/18 Q1015
13:50
V
19 °C 9 km - 210°   210° 9 kt METAR EDLV 161150Z 21009KT 9000 -SHRA VCTS FEW031CB 19/17 Q1015
13:20
V
25 °C 10 km+ - 170°   170° 5 kt METAR EDLV 161120Z 17005KT 120V210 9999 VCSH FEW036CB 25/14 Q1014
12:50
V
25 °C 10 km+ - 190°   190° 6 kt METAR EDLV 161050Z 19006KT 140V230 CAVOK 25/14 Q1015
12:20
V
25 °C 10 km+ - 170°   170° 6 kt METAR EDLV 161020Z 17006KT 140V200 CAVOK 25/15 Q1014
11:50
V
22 °C 10 km+ - 150°   150° 5 kt METAR EDLV 160950Z 15005KT 120V180 CAVOK 22/15 Q1014
11:20
V
20 °C 10 km+ - 160°   160° 4 kt METAR EDLV 160920Z 16004KT 110V200 CAVOK 20/14 Q1014
10:50
V
19 °C 10 km+ - 130°   130° 5 kt METAR EDLV 160850Z 13005KT CAVOK 19/14 Q1014
10:20
V
19 °C 10 km+ - 140°   140° 4 kt METAR EDLV 160820Z 14004KT 090V150 9999 VCSH NSC 19/14 Q1014
09:50
V
18 °C 10 km+ - 150°   150° 4 kt METAR EDLV 160750Z 15004KT 9999 VCSH FEW048TCU 18/13 Q1014
09:20
V
17 °C 10 km+ - 140°   140° 3 kt METAR EDLV 160720Z 14003KT 110V170 9999 VCSH FEW048TCU 17/13 Q1014
08:20
V
19 °C 10 km+ - 130°   130° 8 kt METAR EDLV 160620Z 13008KT CAVOK 19/11 Q1013
07:50
V
18 °C 10 km+ - 140°   140° 8 kt METAR EDLV 160550Z 14008KT CAVOK 18/10 Q1013
07:20
V
17 °C 10 km+ - 120°   120° 6 kt METAR EDLV 160520Z 12006KT CAVOK 17/10 Q1013
06:50
V
16 °C 10 km+ - 120°   120° 5 kt METAR EDLV 160450Z 12005KT CAVOK 16/10 Q1013
06:20
V
15 °C 10 km+ - 120°   120° 5 kt METAR EDLV 160420Z 12005KT CAVOK 15/09 Q1013
05:50
V
15 °C 10 km+ - 110°   110° 5 kt METAR EDLV 160350Z 11005KT CAVOK 15/09 Q1013
05:20
V
14 °C 10 km+ - 130°   130° 4 kt METAR EDLV 160320Z 13004KT 090V200 CAVOK 14/09 Q1013
04:50
V
14 °C 10 km+ - 110°   110° 5 kt METAR EDLV 160250Z AUTO 11005KT 9999 // FEW200/// 14/09 Q1013
04:20
V
15 °C 10 km+ - 100°   100° 4 kt METAR EDLV 160220Z AUTO 10004KT 060V130 9999 // NCD 15/09 Q1013
03:50
V
15 °C 10 km+ - 100°   100° 4 kt METAR EDLV 160150Z AUTO 10004KT 080V140 9999 // NCD 15/09 Q1014
03:20
V
15 °C 10 km+ - 100°   100° 4 kt METAR EDLV 160120Z AUTO 10004KT 070V130 9999 // FEW250/// 15/08 Q1014
02:50
V
15 °C 10 km+ - 100°   100° 4 kt METAR EDLV 160050Z AUTO 10004KT 050V120 9999 // NCD 15/08 Q1014
02:20
V
16 °C 10 km+ - 090°   090° 4 kt METAR EDLV 160020Z AUTO 09004KT 050V120 9999 // NCD 16/09 Q1014
01:50
V
16 °C 10 km+ - 100°   100° 4 kt METAR EDLV 152350Z AUTO 10004KT 070V130 9999 // FEW230/// 16/08 Q1014
01:20
V
16 °C 10 km+ - 090°   090° 3 kt METAR EDLV 152320Z AUTO 09003KT 060V140 9999 // SCT210/// 16/08 Q1014
00:50
V
18 °C 10 km+ 21.000 ft 090°   090° 3 kt METAR EDLV 152250Z AUTO 09003KT 050V120 9999 // BKN210/// 18/08 Q1015
00:20
V
19 °C 10 km+ 23.000 ft 080°   080° 4 kt METAR EDLV 152220Z AUTO 08004KT 050V120 9999 // BKN230/// 19/08 Q1015

15 mei 2022

Tijd Code Weer Temp. Zicht Wolken Wind METAR/SPECI
23:50
V
19 °C 10 km+ - 070°   070° 3 kt METAR EDLV 152150Z AUTO 07003KT 040V100 9999 // NCD 19/08 Q1015
23:20
V
19 °C 10 km+ - 080°   080° 3 kt METAR EDLV 152120Z 08003KT 040V110 CAVOK 19/08 Q1015
22:50
V
20 °C 10 km+ - 080°   080° 3 kt METAR EDLV 152050Z 08003KT 020V110 CAVOK 20/08 Q1015
22:20
V
20 °C 10 km+ - 090°   090° 3 kt METAR EDLV 152020Z 09003KT 340V130 CAVOK 20/08 Q1015
21:50
V
21 °C 10 km+ - 080°   080° 4 kt METAR EDLV 151950Z 08004KT 040V120 CAVOK 21/08 Q1015
21:20
V
22 °C 10 km+ - 070°   070° 3 kt METAR EDLV 151920Z 07003KT 020V100 CAVOK 22/08 Q1015
20:50
V
23 °C 10 km+ - 060°   060° 3 kt METAR EDLV 151850Z 06003KT 020V110 CAVOK 23/07 Q1015
20:20
V
24 °C 10 km+ - Var   Var 4 kt METAR EDLV 151820Z VRB04KT CAVOK 24/07 Q1015
19:50
V
24 °C 10 km+ - 060°   060° 4 kt METAR EDLV 151750Z 06004KT 010V150 CAVOK 24/07 Q1015
19:20
V
24 °C 10 km+ - 060°   060° 5 kt METAR EDLV 151720Z 06005KT 360V110 CAVOK 24/07 Q1015
18:50
V
25 °C 10 km+ - 070°   070° 5 kt METAR EDLV 151650Z 07005KT 020V140 CAVOK 25/07 Q1015
18:20
V
25 °C 10 km+ - 080°   080° 4 kt METAR EDLV 151620Z 08004KT 010V140 CAVOK 25/06 Q1016
17:50
V
25 °C 10 km+ - 080°   080° 5 kt METAR EDLV 151550Z 08005KT 020V150 CAVOK 25/06 Q1016
17:20
V
25 °C 10 km+ - Var   Var 5 kt METAR EDLV 151520Z VRB05KT CAVOK 25/06 Q1016
16:50
V
26 °C 10 km+ - Var   Var 6 kt METAR EDLV 151450Z VRB06KT CAVOK 26/07 Q1017
16:20
V
25 °C 10 km+ - Var   Var 5 kt METAR EDLV 151420Z VRB05KT CAVOK 25/06 Q1017
15:50
V
25 °C 10 km+ - 100°   100° 6 kt METAR EDLV 151350Z 10006KT 040V150 CAVOK 25/06 Q1017
Oudere gegevens

Installeer onze app

Gemakkelijke toegang tot al het luchtvaartweer op je mobiele telefoon en tablet.
Met veel functies die niet op de website beschikbaar zijn, zoals offline ondersteuning en een persoonlijke lijst van vliegvelden.